createdAt,value
2018-12-14T00:01:07.324Z,17.22
2018-12-14T00:03:36.502Z,17.20
2018-12-14T00:06:05.668Z,17.16
2018-12-14T00:08:34.605Z,17.17
2018-12-14T00:11:03.574Z,17.11
2018-12-14T00:13:32.469Z,17.08
2018-12-14T00:16:01.913Z,17.05
2018-12-14T00:18:30.855Z,17.11
2018-12-14T00:21:00.504Z,17.12
2018-12-14T00:23:29.664Z,17.12
2018-12-14T00:25:59.585Z,17.20
2018-12-14T00:28:28.547Z,17.16
2018-12-14T00:30:57.553Z,17.15
2018-12-14T00:33:27.096Z,17.14
2018-12-14T00:35:56.539Z,17.11
2018-12-14T00:38:25.318Z,17.05
2018-12-14T00:40:55.399Z,17.05
2018-12-14T00:43:24.794Z,17.05
2018-12-14T00:45:54.325Z,17.01
2018-12-14T00:48:23.168Z,16.99
2018-12-14T00:50:52.681Z,16.96
2018-12-14T00:53:22.235Z,17.03
2018-12-14T00:55:51.804Z,16.96
2018-12-14T00:58:21.062Z,17.06
2018-12-14T01:00:49.843Z,17.13
2018-12-14T01:03:18.900Z,17.09
2018-12-14T01:05:47.961Z,17.07
2018-12-14T01:08:17.366Z,17.10
2018-12-14T01:10:46.977Z,17.05
2018-12-14T01:13:16.217Z,17.01
2018-12-14T01:15:45.152Z,17.00
2018-12-14T01:18:14.814Z,17.02
2018-12-14T01:20:43.620Z,16.92
2018-12-14T01:23:12.521Z,17.00
2018-12-14T01:25:42.134Z,17.13
2018-12-14T01:28:11.438Z,17.10
2018-12-14T01:30:40.281Z,17.09
2018-12-14T01:33:10.286Z,17.12
2018-12-14T01:35:39.333Z,17.05
2018-12-14T01:38:08.177Z,17.03
2018-12-14T01:40:37.304Z,17.04
2018-12-14T01:43:06.198Z,17.07
2018-12-14T01:45:35.187Z,16.97
2018-12-14T01:48:04.967Z,17.09
2018-12-14T01:50:34.467Z,17.13
2018-12-14T01:53:03.489Z,17.11
2018-12-14T01:55:32.448Z,17.11
2018-12-14T01:58:02.195Z,17.10
2018-12-14T02:00:31.300Z,17.07
2018-12-14T02:03:00.655Z,17.00
2018-12-14T02:05:29.952Z,17.02
2018-12-14T02:07:59.071Z,17.07
2018-12-14T02:10:28.140Z,16.93
2018-12-14T02:12:57.369Z,17.13
2018-12-14T02:15:26.171Z,17.11
2018-12-14T02:17:55.936Z,17.15
2018-12-14T02:20:25.472Z,17.15
2018-12-14T02:22:54.292Z,17.11
2018-12-14T02:25:23.245Z,17.06
2018-12-14T02:27:52.689Z,17.04
2018-12-14T02:30:33.048Z,17.03
2018-12-14T02:33:01.980Z,17.02
2018-12-14T02:35:30.992Z,16.99
2018-12-14T02:38:00.687Z,16.98
2018-12-14T02:40:30.196Z,16.96
2018-12-14T02:42:59.986Z,17.00
2018-12-14T02:45:29.386Z,16.83
2018-12-14T02:47:58.392Z,16.96
2018-12-14T02:50:27.269Z,17.10
2018-12-14T02:52:57.584Z,17.08
2018-12-14T02:55:26.789Z,17.08
2018-12-14T02:57:55.815Z,17.09
2018-12-14T03:00:24.634Z,17.06
2018-12-14T03:02:54.821Z,17.02
2018-12-14T03:05:24.403Z,16.99
2018-12-14T03:07:53.307Z,17.04
2018-12-14T03:10:22.163Z,16.90
2018-12-14T03:12:51.204Z,17.00
2018-12-14T03:15:21.075Z,17.13
2018-12-14T03:17:50.523Z,17.12
2018-12-14T03:20:20.316Z,17.09
2018-12-14T03:22:50.297Z,17.09
2018-12-14T03:25:19.379Z,17.11
2018-12-14T03:27:48.531Z,17.07
2018-12-14T03:30:17.491Z,17.03
2018-12-14T03:32:46.439Z,17.05
2018-12-14T03:35:16.258Z,17.01
2018-12-14T03:37:45.432Z,16.98
2018-12-14T03:40:14.306Z,16.93
2018-12-14T03:42:43.333Z,16.99
2018-12-14T03:45:12.144Z,16.97
2018-12-14T03:47:41.306Z,16.84
2018-12-14T03:52:43.252Z,17.07
2018-12-14T03:55:12.237Z,17.10
2018-12-14T03:57:41.705Z,17.08
2018-12-14T04:00:11.464Z,17.07
2018-12-14T04:02:40.332Z,16.99
2018-12-14T04:05:09.302Z,16.98
2018-12-14T04:07:38.167Z,17.00
2018-12-14T04:10:07.806Z,17.02
2018-12-14T04:12:41.478Z,16.94
2018-12-14T04:15:07.840Z,17.07
2018-12-14T04:17:36.787Z,17.04
2018-12-14T04:20:06.008Z,17.06
2018-12-14T04:22:35.411Z,17.08
2018-12-14T04:25:04.482Z,17.07
2018-12-14T04:27:34.060Z,16.99
2018-12-14T04:30:02.998Z,16.97
2018-12-14T04:32:31.956Z,17.02
2018-12-14T04:35:01.586Z,17.00
2018-12-14T04:37:31.120Z,17.04
2018-12-14T04:40:00.167Z,17.11
2018-12-14T04:42:30.975Z,17.08
2018-12-14T04:44:59.871Z,17.08
2018-12-14T04:47:28.785Z,17.12
2018-12-14T04:49:57.683Z,17.03
2018-12-14T04:52:26.434Z,17.01
2018-12-14T04:54:55.188Z,17.02
2018-12-14T04:57:23.969Z,17.02
2018-12-14T04:59:53.033Z,16.93
2018-12-14T05:02:22.533Z,16.93
2018-12-14T05:04:51.520Z,17.06
2018-12-14T05:07:20.335Z,17.03
2018-12-14T05:09:49.273Z,17.05
2018-12-14T05:12:18.138Z,17.00
2018-12-14T05:14:47.262Z,16.97
2018-12-14T05:17:16.555Z,16.92
2018-12-14T05:19:45.388Z,16.89
2018-12-14T05:22:14.856Z,16.89
2018-12-14T05:24:43.826Z,16.86
2018-12-14T05:27:13.238Z,16.90
2018-12-14T05:29:42.323Z,16.78
2018-12-14T05:32:11.109Z,16.92
2018-12-14T05:34:40.362Z,17.01
2018-12-14T05:37:09.339Z,17.09
2018-12-14T05:39:38.241Z,17.17
2018-12-14T05:42:07.429Z,17.22
2018-12-14T05:44:36.166Z,17.17
2018-12-14T05:47:05.325Z,17.16
2018-12-14T05:49:34.119Z,17.27
2018-12-14T05:52:03.419Z,17.37
2018-12-14T05:54:33.130Z,17.36
2018-12-14T05:57:02.245Z,17.34
2018-12-14T05:59:31.338Z,17.38
2018-12-14T06:02:00.166Z,17.31
2018-12-14T06:04:29.104Z,17.38
2018-12-14T06:06:58.414Z,17.45
2018-12-14T06:09:27.390Z,17.59
2018-12-14T06:11:56.581Z,17.70
2018-12-14T06:14:25.330Z,17.79
2018-12-14T06:16:54.189Z,17.71
2018-12-14T06:19:23.080Z,17.69
2018-12-14T06:21:51.822Z,17.80
2018-12-14T06:24:21.244Z,17.93
2018-12-14T06:26:50.023Z,18.03
2018-12-14T06:29:18.888Z,17.95
2018-12-14T06:31:47.827Z,17.95
2018-12-14T06:34:16.670Z,17.95
2018-12-14T06:36:45.590Z,17.93
2018-12-14T06:39:15.644Z,17.94
2018-12-14T06:41:45.101Z,18.03
2018-12-14T06:44:14.074Z,18.15
2018-12-14T06:46:43.405Z,18.30
2018-12-14T06:49:12.443Z,18.36
2018-12-14T06:51:41.485Z,18.26
2018-12-14T06:54:10.393Z,18.23
2018-12-14T06:56:40.082Z,18.32
2018-12-14T06:59:09.198Z,18.36
2018-12-14T07:01:38.704Z,18.30
2018-12-14T07:04:07.721Z,18.29
2018-12-14T07:06:36.614Z,18.25
2018-12-14T07:09:06.746Z,18.26
2018-12-14T07:11:36.366Z,18.34
2018-12-14T07:14:05.239Z,18.45
2018-12-14T07:16:34.319Z,18.48
2018-12-14T07:19:04.213Z,18.46
2018-12-14T07:21:33.355Z,18.35
2018-12-14T07:24:02.531Z,18.26
2018-12-14T07:26:31.392Z,18.19
2018-12-14T07:29:00.815Z,18.17
2018-12-14T07:31:30.793Z,18.13
2018-12-14T07:33:59.631Z,18.17
2018-12-14T07:36:28.762Z,18.08
2018-12-14T07:38:58.204Z,18.04
2018-12-14T07:41:28.367Z,18.00
2018-12-14T07:43:59.120Z,17.87
2018-12-14T07:46:29.076Z,17.85
2018-12-14T07:48:58.578Z,17.80
2018-12-14T07:51:27.435Z,17.75
2018-12-14T07:53:56.523Z,17.63
2018-12-14T07:56:25.655Z,17.47
2018-12-14T07:58:54.938Z,17.43
2018-12-14T08:01:24.170Z,17.33
2018-12-14T08:03:55.708Z,17.19
2018-12-14T08:09:17.049Z,17.11
2018-12-14T08:11:52.156Z,17.13
2018-12-14T08:14:21.858Z,17.13
2018-12-14T08:16:50.790Z,17.09
2018-12-14T08:19:21.200Z,16.98
2018-12-14T08:21:51.218Z,16.89
2018-12-14T08:24:20.451Z,16.79
2018-12-14T08:26:49.470Z,16.73
2018-12-14T08:30:49.759Z,16.70
2018-12-14T08:33:19.471Z,16.59
2018-12-14T08:35:48.914Z,16.48
2018-12-14T08:38:19.572Z,16.39
2018-12-14T08:40:58.401Z,16.35
2018-12-14T08:43:34.366Z,16.34
2018-12-14T08:46:03.461Z,16.31
2018-12-14T08:48:32.471Z,16.14
2018-12-14T08:51:03.753Z,16.14
2018-12-14T08:53:34.032Z,16.11
2018-12-14T08:56:04.198Z,15.97
2018-12-14T08:58:34.123Z,15.94
2018-12-14T09:01:05.294Z,16.01
2018-12-14T09:03:36.075Z,15.93
2018-12-14T09:06:05.076Z,15.88
2018-12-14T09:08:34.437Z,15.81
2018-12-14T09:11:03.466Z,15.73
2018-12-14T09:13:34.163Z,15.70
2018-12-14T09:16:03.510Z,15.63
2018-12-14T09:18:36.185Z,15.60
2018-12-14T09:21:05.134Z,15.54
2018-12-14T09:23:36.093Z,15.44
2018-12-14T09:26:05.544Z,15.39
2018-12-14T09:28:35.783Z,15.43
2018-12-14T09:31:04.635Z,15.35
2018-12-14T09:33:33.984Z,15.32
2018-12-14T09:36:04.422Z,15.28
2018-12-14T09:38:35.107Z,15.23
2018-12-14T09:41:04.741Z,15.13
2018-12-14T09:43:35.016Z,15.14
2018-12-14T09:46:04.598Z,15.10
2018-12-14T09:48:33.930Z,15.01
2018-12-14T09:51:05.468Z,14.97
2018-12-14T09:53:36.259Z,14.95
2018-12-14T09:56:07.196Z,14.99
2018-12-14T09:58:36.937Z,14.97
2018-12-14T10:01:07.311Z,14.93
2018-12-14T10:03:39.599Z,14.95
2018-12-14T10:06:15.526Z,14.93
2018-12-14T10:08:40.395Z,15.05
2018-12-14T10:11:14.121Z,15.03
2018-12-14T10:13:44.254Z,15.04
2018-12-14T10:16:16.286Z,15.02
2018-12-14T10:18:47.787Z,15.04
2018-12-14T10:21:19.116Z,15.04
2018-12-14T10:23:55.893Z,15.07
2018-12-14T10:26:29.534Z,15.08
2018-12-14T10:28:59.032Z,15.04
2018-12-14T10:31:38.300Z,15.10
2018-12-14T10:34:08.794Z,15.04
2018-12-14T10:36:38.005Z,15.06
2018-12-14T10:39:09.308Z,15.06
2018-12-14T10:41:39.507Z,15.07
2018-12-14T10:44:08.451Z,15.06
2018-12-14T10:46:38.442Z,15.04
2018-12-14T10:49:09.175Z,15.11
2018-12-14T10:51:42.635Z,15.09
2018-12-14T10:54:12.657Z,15.07
2018-12-14T10:56:42.895Z,15.07
2018-12-14T10:59:13.294Z,15.14
2018-12-14T11:01:47.567Z,15.04
2018-12-14T11:04:17.944Z,14.98
2018-12-14T11:06:49.572Z,15.00
2018-12-14T11:09:20.379Z,14.98
2018-12-14T11:11:50.914Z,14.96
2018-12-14T11:14:21.437Z,14.97
2018-12-14T11:16:50.521Z,15.02
2018-12-14T11:19:21.179Z,15.02
2018-12-14T11:21:56.440Z,14.92
2018-12-14T11:24:26.661Z,14.92
2018-12-14T11:26:56.438Z,14.89
2018-12-14T11:29:25.543Z,14.93
2018-12-14T11:31:54.637Z,14.93
2018-12-14T11:34:29.715Z,14.90
2018-12-14T11:36:57.544Z,14.93
2018-12-14T11:39:26.935Z,14.91
2018-12-14T11:41:55.670Z,14.95
2018-12-14T11:44:25.399Z,14.93
2018-12-14T11:46:54.385Z,14.92
2018-12-14T11:49:23.281Z,14.94
2018-12-14T11:51:52.304Z,14.92
2018-12-14T11:54:24.140Z,14.92
2018-12-14T11:56:54.209Z,14.91
2018-12-14T11:59:23.562Z,14.92
2018-12-14T12:01:52.366Z,14.89
2018-12-14T12:04:21.794Z,14.87
2018-12-14T12:06:51.318Z,14.88
2018-12-14T12:09:21.951Z,14.93
2018-12-14T12:11:50.722Z,14.92
2018-12-14T12:14:19.826Z,14.93
2018-12-14T12:16:48.659Z,14.91
2018-12-14T12:19:17.839Z,14.90
2018-12-14T12:21:49.954Z,15.02
2018-12-14T12:24:19.248Z,14.95
2018-12-14T12:26:48.455Z,14.93
2018-12-14T12:29:17.585Z,14.93
2018-12-14T12:31:48.218Z,14.91
2018-12-14T12:34:17.238Z,14.90
2018-12-14T12:36:46.714Z,14.95
2018-12-14T12:39:15.802Z,14.91
2018-12-14T12:41:44.742Z,14.96
2018-12-14T12:44:14.276Z,14.95
2018-12-14T12:46:43.211Z,14.93
2018-12-14T12:49:12.370Z,14.95
2018-12-14T12:51:42.190Z,14.91
2018-12-14T12:54:17.775Z,14.93
2018-12-14T12:56:47.134Z,14.92
2018-12-14T12:59:15.992Z,14.94
2018-12-14T13:01:45.257Z,14.99
2018-12-14T13:04:16.084Z,15.04
2018-12-14T13:06:47.451Z,14.89
2018-12-14T13:09:16.586Z,14.97
2018-12-14T13:11:45.501Z,14.96
2018-12-14T13:17:04.301Z,14.96
2018-12-14T13:19:35.094Z,14.99
2018-12-14T13:22:04.450Z,14.98
2018-12-14T13:24:33.853Z,14.94
2018-12-14T13:27:03.816Z,15.04
2018-12-14T13:29:33.354Z,14.90
2018-12-14T13:32:02.446Z,14.96
2018-12-14T13:34:31.563Z,14.97
2018-12-14T13:37:00.408Z,14.90
2018-12-14T13:39:29.815Z,14.96
2018-12-14T13:41:58.815Z,14.87
2018-12-14T13:44:28.153Z,14.88
2018-12-14T13:46:57.165Z,14.96
2018-12-14T13:49:26.338Z,14.92
2018-12-14T13:51:55.282Z,14.89
2018-12-14T13:54:25.078Z,14.87
2018-12-14T13:56:55.093Z,14.93
2018-12-14T13:59:24.282Z,14.92
2018-12-14T14:01:53.759Z,14.98
2018-12-14T14:04:22.654Z,14.91
2018-12-14T14:06:51.807Z,14.93
2018-12-14T14:09:21.350Z,14.98
2018-12-14T14:11:50.265Z,14.97
2018-12-14T14:14:22.048Z,14.98
2018-12-14T14:16:53.352Z,14.93
2018-12-14T14:19:24.131Z,15.04
2018-12-14T14:21:53.359Z,15.06
2018-12-14T14:24:22.773Z,15.11
2018-12-14T14:26:51.906Z,14.94
2018-12-14T14:29:22.625Z,14.90
2018-12-14T14:31:52.806Z,14.88
2018-12-14T14:34:21.789Z,14.93
2018-12-14T14:36:52.499Z,14.89
2018-12-14T14:39:21.375Z,14.92
2018-12-14T14:41:50.462Z,14.98
2018-12-14T14:44:19.694Z,14.89
2018-12-14T14:46:48.980Z,15.05
2018-12-14T14:49:17.859Z,14.93
2018-12-14T14:51:47.261Z,14.95
2018-12-14T14:54:16.803Z,14.92
2018-12-14T14:56:45.548Z,14.92
2018-12-14T14:59:14.555Z,15.02
2018-12-14T15:01:43.443Z,15.00
2018-12-14T15:04:12.189Z,15.00
2018-12-14T15:06:41.755Z,14.95
2018-12-14T15:09:12.166Z,14.85
2018-12-14T15:11:41.098Z,14.82
2018-12-14T15:14:10.250Z,14.85
2018-12-14T15:16:39.235Z,14.77
2018-12-14T15:19:09.169Z,14.72
2018-12-14T15:21:38.870Z,14.72
2018-12-14T15:24:08.213Z,14.77
2018-12-14T15:26:37.210Z,14.82
2018-12-14T15:29:06.635Z,14.69
2018-12-14T15:31:35.667Z,14.65
2018-12-14T15:34:04.690Z,14.75
2018-12-14T15:36:33.471Z,14.79
2018-12-14T15:39:02.203Z,14.84
2018-12-14T15:41:32.085Z,14.95
2018-12-14T15:44:00.845Z,14.95
2018-12-14T15:46:30.018Z,15.08
2018-12-14T15:48:58.767Z,15.27
2018-12-14T15:51:27.794Z,15.32
2018-12-14T15:53:56.738Z,15.23
2018-12-14T15:56:25.502Z,15.38
2018-12-14T15:58:54.986Z,15.47
2018-12-14T16:01:23.975Z,15.64
2018-12-14T16:03:53.154Z,15.86
2018-12-14T16:06:21.915Z,15.80
2018-12-14T16:08:50.801Z,15.72
2018-12-14T16:11:21.551Z,15.96
2018-12-14T16:13:51.238Z,15.94
2018-12-14T16:16:20.075Z,15.87
2018-12-14T16:18:49.218Z,15.92
2018-12-14T16:21:18.276Z,15.98
2018-12-14T16:23:48.088Z,16.16
2018-12-14T16:26:17.183Z,16.23
2018-12-14T16:28:46.268Z,16.33
2018-12-14T16:31:15.930Z,16.46
2018-12-14T16:33:45.431Z,16.52
2018-12-14T16:36:14.374Z,16.52
2018-12-14T16:38:44.326Z,16.57
2018-12-14T16:41:14.169Z,16.56
2018-12-14T16:43:42.915Z,16.51
2018-12-14T16:46:12.591Z,16.61
2018-12-14T16:48:43.099Z,16.75
2018-12-14T16:54:44.430Z,16.84
2018-12-14T16:57:13.330Z,16.90
2018-12-14T16:59:42.822Z,16.90
2018-12-14T17:02:12.390Z,17.01
2018-12-14T17:04:42.002Z,17.03
2018-12-14T17:07:12.042Z,17.11
2018-12-14T17:09:42.100Z,17.09
2018-12-14T17:12:11.314Z,17.16
2018-12-14T17:14:40.780Z,17.14
2018-12-14T17:17:09.851Z,17.21
2018-12-14T17:19:39.030Z,17.25
2018-12-14T17:22:09.027Z,17.22
2018-12-14T17:24:41.301Z,17.25
2018-12-14T17:27:10.626Z,17.33
2018-12-14T17:29:41.858Z,17.38
2018-12-14T17:32:12.017Z,17.43
2018-12-14T17:34:41.192Z,17.43
2018-12-14T17:37:10.548Z,17.43
2018-12-14T17:39:40.469Z,17.49
2018-12-14T17:42:09.731Z,17.43
2018-12-14T17:44:39.926Z,17.53
2018-12-14T17:47:09.918Z,17.55
2018-12-14T17:49:39.348Z,17.61
2018-12-14T17:52:15.610Z,17.64
2018-12-14T17:54:45.870Z,17.64
2018-12-14T17:57:15.084Z,17.68
2018-12-14T17:59:45.608Z,17.66
2018-12-14T18:02:15.228Z,17.70
2018-12-14T18:04:44.711Z,17.74
2018-12-14T18:07:14.422Z,17.76
2018-12-14T18:09:45.134Z,17.78
2018-12-14T18:12:14.448Z,17.80
2018-12-14T18:14:43.335Z,17.78
2018-12-14T18:17:12.209Z,17.82
2018-12-14T18:19:44.185Z,17.80
2018-12-14T18:22:15.496Z,17.84
2018-12-14T18:24:44.642Z,17.84
2018-12-14T18:27:17.133Z,17.86
2018-12-14T18:29:47.587Z,17.91
2018-12-14T18:32:17.362Z,17.93
2018-12-14T18:34:47.134Z,17.95
2018-12-14T18:37:24.377Z,17.95
2018-12-14T18:39:54.280Z,17.97
2018-12-14T18:42:26.948Z,17.95
2018-12-14T18:45:01.084Z,17.97
2018-12-14T18:48:32.968Z,18.00
2018-12-14T18:51:01.721Z,18.05
2018-12-14T18:53:30.770Z,18.04
2018-12-14T18:56:00.222Z,18.03
2018-12-14T18:58:30.373Z,18.05
2018-12-14T19:01:01.395Z,18.04
2018-12-14T19:03:32.372Z,18.03
2018-12-14T19:06:01.620Z,18.06
2018-12-14T19:08:31.094Z,18.10
2018-12-14T19:11:00.302Z,18.10
2018-12-14T19:13:29.146Z,18.12
2018-12-14T19:15:59.765Z,18.16
2018-12-14T19:18:29.175Z,18.16
2018-12-14T19:20:58.044Z,18.16
2018-12-14T19:23:27.095Z,18.15
2018-12-14T19:25:56.571Z,18.15
2018-12-14T19:28:26.485Z,18.18
2018-12-14T19:30:55.433Z,18.21
2018-12-14T19:33:24.854Z,18.21
2018-12-14T19:35:54.221Z,18.22
2018-12-14T19:38:24.090Z,18.19
2018-12-14T19:40:53.676Z,18.20
2018-12-14T19:43:22.637Z,18.22
2018-12-14T19:45:51.880Z,18.23
2018-12-14T19:48:22.759Z,18.25
2018-12-14T19:50:51.638Z,18.25
2018-12-14T19:53:20.797Z,18.27
2018-12-14T19:55:51.312Z,18.23
2018-12-14T19:58:21.154Z,18.24
2018-12-14T20:00:55.033Z,18.23
2018-12-14T20:03:23.947Z,18.20
2018-12-14T20:05:53.464Z,18.21
2018-12-14T20:08:22.395Z,18.23
2018-12-14T20:10:51.185Z,18.25
2018-12-14T20:13:23.030Z,18.25
2018-12-14T20:15:57.522Z,18.28
2018-12-14T20:18:23.657Z,18.26
2018-12-14T20:20:53.649Z,18.22
2018-12-14T20:23:23.481Z,18.21
2018-12-14T20:25:53.080Z,18.25
2018-12-14T20:28:22.340Z,18.29
2018-12-14T20:30:51.704Z,18.29
2018-12-14T20:33:20.850Z,18.29
2018-12-14T20:35:51.168Z,18.30
2018-12-14T20:38:20.337Z,18.28
2018-12-14T20:40:50.206Z,18.26
2018-12-14T20:43:20.429Z,18.27
2018-12-14T20:45:50.146Z,18.31
2018-12-14T20:48:19.790Z,18.32
2018-12-14T20:50:50.056Z,18.32
2018-12-14T20:53:19.387Z,18.32
2018-12-14T20:55:49.077Z,18.34
2018-12-14T20:58:20.612Z,18.33
2018-12-14T21:00:50.638Z,18.30
2018-12-14T21:03:19.967Z,18.32
2018-12-14T21:05:48.772Z,18.39
2018-12-14T21:08:18.126Z,18.36
2018-12-14T21:10:49.093Z,18.38
2018-12-14T21:13:22.043Z,18.35
2018-12-14T21:15:53.830Z,18.39
2018-12-14T21:18:23.883Z,18.31
2018-12-14T21:20:56.232Z,18.36
2018-12-14T21:23:27.115Z,18.27
2018-12-14T21:26:02.097Z,18.28
2018-12-14T21:28:31.567Z,18.31
2018-12-14T21:31:03.580Z,18.28
2018-12-14T21:33:33.654Z,18.36
2018-12-14T21:36:03.288Z,18.28
2018-12-14T21:38:33.372Z,18.37
2018-12-14T21:41:04.001Z,18.25
2018-12-14T21:43:34.912Z,18.28
2018-12-14T21:46:06.076Z,18.31
2018-12-14T21:48:36.455Z,18.24
2018-12-14T21:51:07.081Z,18.15
2018-12-14T21:53:37.549Z,18.13
2018-12-14T21:56:06.897Z,18.08
2018-12-14T21:58:36.716Z,18.08
2018-12-14T22:01:05.463Z,17.95
2018-12-14T22:03:34.196Z,17.91
2018-12-14T22:06:04.387Z,17.93
2018-12-14T22:08:33.368Z,17.85
2018-12-14T22:11:02.461Z,17.78
2018-12-14T22:13:31.588Z,17.75
2018-12-14T22:16:01.862Z,17.76
2018-12-14T22:18:31.844Z,17.72
2018-12-14T22:21:01.830Z,17.63
2018-12-14T22:23:31.278Z,17.58
2018-12-14T22:26:00.348Z,17.56
2018-12-14T22:28:30.876Z,17.55
2018-12-14T22:31:00.633Z,17.47
2018-12-14T22:33:29.630Z,17.40
2018-12-14T22:35:58.473Z,17.45
2018-12-14T22:38:27.909Z,17.37
2018-12-14T22:40:56.824Z,17.31
2018-12-14T22:43:26.636Z,17.28
2018-12-14T22:45:56.778Z,17.24
2018-12-14T22:48:27.817Z,17.20
2018-12-14T22:50:58.390Z,17.15
2018-12-14T22:53:28.272Z,17.12
2018-12-14T22:55:57.156Z,17.13
2018-12-14T22:58:29.764Z,17.21
2018-12-14T23:00:59.494Z,17.29
2018-12-14T23:03:29.703Z,17.25
2018-12-14T23:06:01.420Z,17.15
2018-12-14T23:08:30.386Z,17.15
2018-12-14T23:11:01.196Z,17.19
2018-12-14T23:13:31.414Z,17.18
2018-12-14T23:16:00.917Z,17.05
2018-12-14T23:18:30.096Z,17.02
2018-12-14T23:20:59.805Z,17.03
2018-12-14T23:23:28.915Z,16.97
2018-12-14T23:25:57.741Z,16.92
2018-12-14T23:28:26.900Z,16.90
2018-12-14T23:30:55.851Z,16.88
2018-12-14T23:33:25.450Z,16.87
2018-12-14T23:35:54.820Z,16.83
2018-12-14T23:38:23.776Z,16.78
2018-12-14T23:40:53.158Z,16.84
2018-12-14T23:43:37.787Z,16.95
2018-12-14T23:48:46.516Z,16.92
2018-12-14T23:51:16.194Z,16.82
2018-12-14T23:53:45.392Z,16.85
2018-12-14T23:56:14.312Z,16.83
2018-12-14T23:58:43.446Z,16.84
